Time;durP1;ratioP1;P1;durP2;ratioP2;P2;SDS_P1;SDS_P2;PMS_P1;PMS_P2;Temp;Humidity;BMP_temperature;BMP_pressure;BME280_temperature;BME280_humidity;BME280_pressure;Samples;Min_cycle;Max_cycle;Signal;HPM_P1;HPM_P2
2023/06/24 00:00:14;;;;;;;13.35;9.00;;;;;;;;;;6193858;23;20438;-94
2023/06/24 00:02:46;;;;;;;16.23;8.63;;;;;;;;;;6194409;23;20004;-94
2023/06/24 00:05:16;;;;;;;17.33;8.65;;;;;;;;;;6171776;23;20553;-93
2023/06/24 00:07:52;;;;;;;16.92;8.30;;;;;;;;;;6206120;23;20009;-94
2023/06/24 00:10:19;;;;;;;17.73;9.85;;;;;;;;;;6183557;23;20020;-94
2023/06/24 00:12:46;;;;;;;21.00;9.00;;;;;;;;;;6176931;23;20064;-94
2023/06/24 00:15:19;;;;;;;17.80;10.07;;;;;;;;;;6175104;23;20039;-95
2023/06/24 00:17:45;;;;;;;19.15;9.90;;;;;;;;;;6176134;23;20013;-96
2023/06/24 00:20:14;;;;;;;22.88;10.25;;;;;;;;;;6196196;23;20005;-93
2023/06/24 00:22:43;;;;;;;20.80;10.38;;;;;;;;;;6194001;23;20020;-95
2023/06/24 00:25:11;;;;;;;15.93;9.90;;;;;;;;;;6193640;23;20012;-95
2023/06/24 00:27:37;;;;;;;19.98;11.30;;;;;;;;;;6167625;23;20454;-95
2023/06/24 00:30:03;;;;;;;20.77;10.35;;;;;;;;;;6216967;23;20093;-95
2023/06/24 00:32:30;;;;;;;21.52;11.85;;;;;;;;;;6165319;23;20577;-95
2023/06/24 00:34:59;;;;;;;21.60;11.65;;;;;;;;;;6165446;23;20013;-96
2023/06/24 00:37:33;;;;;;;24.50;13.32;;;;;;;;;;6166061;23;20021;-95
2023/06/24 00:39:59;;;;;;;22.38;12.20;;;;;;;;;;6165154;23;20009;-95
2023/06/24 00:42:26;;;;;;;21.55;12.32;;;;;;;;;;6213719;23;20009;-94
2023/06/24 00:44:52;;;;;;;21.75;12.27;;;;;;;;;;6164786;23;20016;-93
2023/06/24 00:47:18;;;;;;;24.13;12.52;;;;;;;;;;6164394;23;20004;-95
2023/06/24 00:49:45;;;;;;;20.80;10.98;;;;;;;;;;6165334;23;20020;-96
2023/06/24 00:52:17;;;;;;;21.83;12.05;;;;;;;;;;6192063;22;20021;-96
2023/06/24 00:54:47;;;;;;;19.83;11.05;;;;;;;;;;6214801;23;20004;-95
2023/06/24 00:57:14;;;;;;;22.55;11.82;;;;;;;;;;6213862;23;20000;-96
2023/06/24 00:59:42;;;;;;;21.90;12.25;;;;;;;;;;6214012;23;20063;-96
2023/06/24 01:02:09;;;;;;;24.13;12.98;;;;;;;;;;6212955;23;20339;-95
2023/06/24 01:05:02;;;;;;;21.27;12.65;;;;;;;;;;6163952;23;20016;-95
2023/06/24 01:07:30;;;;;;;22.13;12.38;;;;;;;;;;6178517;23;20350;-95
2023/06/24 01:10:00;;;;;;;22.33;11.57;;;;;;;;;;6211949;23;20419;-95
2023/06/24 01:12:27;;;;;;;21.05;11.80;;;;;;;;;;6162052;23;20393;-93
2023/06/24 01:14:53;;;;;;;23.80;12.35;;;;;;;;;;6210210;23;20434;-95
2023/06/24 01:17:33;;;;;;;22.90;12.60;;;;;;;;;;6211906;23;20005;-96
2023/06/24 01:20:00;;;;;;;24.35;12.60;;;;;;;;;;6213555;23;20054;-94
2023/06/24 01:22:40;;;;;;;22.42;11.60;;;;;;;;;;6214105;23;20304;-95
2023/06/24 01:25:10;;;;;;;21.48;10.90;;;;;;;;;;6212832;23;20005;-96
2023/06/24 01:27:44;;;;;;;19.95;11.15;;;;;;;;;;6210807;23;20008;-95
2023/06/24 01:30:11;;;;;;;24.58;11.55;;;;;;;;;;6210541;23;20008;-95
2023/06/24 01:32:46;;;;;;;23.55;11.30;;;;;;;;;;6210671;23;20350;-96
2023/06/24 01:35:16;;;;;;;21.98;11.27;;;;;;;;;;6208749;23;20087;-95
2023/06/24 01:37:43;;;;;;;20.15;11.32;;;;;;;;;;6161511;23;20038;-95
2023/06/24 01:40:29;;;;;;;18.85;11.05;;;;;;;;;;6209396;23;20012;-95
2023/06/24 01:42:57;;;;;;;22.75;12.45;;;;;;;;;;6210229;23;20015;-95
2023/06/24 01:45:26;;;;;;;20.55;11.50;;;;;;;;;;6211259;23;20001;-95
2023/06/24 01:47:56;;;;;;;24.08;12.88;;;;;;;;;;6209604;23;20062;-96
2023/06/24 01:50:33;;;;;;;21.63;11.68;;;;;;;;;;6214203;22;20068;-94
2023/06/24 01:53:00;;;;;;;21.63;12.52;;;;;;;;;;6215806;23;20060;-95
2023/06/24 01:55:29;;;;;;;25.75;12.02;;;;;;;;;;6215076;23;20008;-95
2023/06/24 01:58:02;;;;;;;25.58;13.23;;;;;;;;;;6215665;23;20012;-94
2023/06/24 02:00:29;;;;;;;26.90;13.48;;;;;;;;;;6192478;23;20004;-95
2023/06/24 02:02:55;;;;;;;26.75;13.82;;;;;;;;;;6216435;23;20059;-95
2023/06/24 02:05:22;;;;;;;29.27;13.90;;;;;;;;;;6214538;23;20004;-95
2023/06/24 02:07:54;;;;;;;27.48;12.70;;;;;;;;;;6190141;23;20344;-94
2023/06/24 02:10:22;;;;;;;21.13;12.68;;;;;;;;;;6190480;23;20012;-95
2023/06/24 02:12:57;;;;;;;26.80;14.05;;;;;;;;;;6240837;23;20011;-95
2023/06/24 02:15:27;;;;;;;29.75;14.80;;;;;;;;;;6215148;23;20015;-95
2023/06/24 02:17:56;;;;;;;23.65;13.20;;;;;;;;;;6215286;23;20012;-96
2023/06/24 02:20:26;;;;;;;27.40;14.38;;;;;;;;;;6215364;23;20388;-95
2023/06/24 02:22:52;;;;;;;24.52;14.30;;;;;;;;;;6214801;23;20401;-95
2023/06/24 02:25:19;;;;;;;27.45;13.82;;;;;;;;;;6213742;23;20004;-94
2023/06/24 02:27:46;;;;;;;30.10;14.40;;;;;;;;;;6214176;23;20012;-95
2023/06/24 02:30:15;;;;;;;23.00;13.63;;;;;;;;;;6213840;23;20008;-95
2023/06/24 02:32:45;;;;;;;30.40;13.82;;;;;;;;;;6190049;23;20023;-95
2023/06/24 02:35:13;;;;;;;29.15;14.25;;;;;;;;;;6190409;23;20020;-95
2023/06/24 02:37:40;;;;;;;28.00;14.88;;;;;;;;;;6214855;23;20004;-94
2023/06/24 02:40:08;;;;;;;27.83;13.15;;;;;;;;;;6189251;23;20000;-95
2023/06/24 02:42:40;;;;;;;31.67;14.10;;;;;;;;;;6214147;23;20095;-95
2023/06/24 02:45:07;;;;;;;24.95;13.18;;;;;;;;;;6190304;23;20012;-94
2023/06/24 02:47:34;;;;;;;25.30;12.98;;;;;;;;;;6214996;23;20010;-95
2023/06/24 02:50:01;;;;;;;27.38;13.48;;;;;;;;;;6214793;23;20489;-95
2023/06/24 02:52:54;;;;;;;29.10;15.25;;;;;;;;;;6169149;22;20034;-95
2023/06/24 02:55:21;;;;;;;32.92;14.48;;;;;;;;;;6210762;23;20001;-95
2023/06/24 02:57:51;;;;;;;27.80;14.45;;;;;;;;;;6159693;23;20009;-95
2023/06/24 03:00:21;;;;;;;23.40;13.25;;;;;;;;;;6208496;23;20131;-95
2023/06/24 03:02:51;;;;;;;32.72;16.42;;;;;;;;;;6209955;23;20005;-94
2023/06/24 03:05:18;;;;;;;29.35;14.77;;;;;;;;;;6210010;23;20008;-94
2023/06/24 03:07:45;;;;;;;28.45;14.65;;;;;;;;;;6209524;23;20012;-93
2023/06/24 03:10:15;;;;;;;32.42;14.50;;;;;;;;;;6209710;23;20004;-95
2023/06/24 03:12:41;;;;;;;27.85;14.73;;;;;;;;;;6159849;23;20038;-95
2023/06/24 03:15:09;;;;;;;22.17;13.65;;;;;;;;;;6160220;23;20020;-95
2023/06/24 03:17:35;;;;;;;29.25;14.32;;;;;;;;;;6185402;23;20013;-95
2023/06/24 03:20:02;;;;;;;31.42;14.20;;;;;;;;;;6159036;23;20347;-95
2023/06/24 03:22:28;;;;;;;32.72;16.10;;;;;;;;;;6209764;23;20020;-95
2023/06/24 03:24:57;;;;;;;31.08;15.52;;;;;;;;;;6159659;23;20491;-95
2023/06/24 03:27:23;;;;;;;26.92;14.30;;;;;;;;;;6159763;23;20016;-95
2023/06/24 03:29:50;;;;;;;25.65;14.75;;;;;;;;;;6208594;23;20184;-95
2023/06/24 03:32:16;;;;;;;32.40;13.98;;;;;;;;;;6159343;23;20437;-96
2023/06/24 03:34:45;;;;;;;30.40;14.45;;;;;;;;;;6209700;23;20031;-96
2023/06/24 03:37:11;;;;;;;29.42;14.68;;;;;;;;;;6159757;23;20211;-95
2023/06/24 03:39:37;;;;;;;30.50;13.70;;;;;;;;;;6208856;23;20057;-95
2023/06/24 03:42:04;;;;;;;25.88;13.88;;;;;;;;;;6159282;23;20019;-95
2023/06/24 03:44:57;;;;;;;29.60;12.85;;;;;;;;;;6186477;23;20444;-94
2023/06/24 03:50:13;;;;;;;26.98;12.55;;;;;;;;;;6178080;23;20036;-95
2023/06/24 03:52:40;;;;;;;28.25;13.00;;;;;;;;;;6163892;22;20024;-95
2023/06/24 03:55:06;;;;;;;25.30;12.77;;;;;;;;;;6210056;23;20005;-95
2023/06/24 03:57:32;;;;;;;23.23;11.93;;;;;;;;;;6159831;23;20458;-96
2023/06/24 03:59:58;;;;;;;27.08;13.30;;;;;;;;;;6158997;23;20008;-95
2023/06/24 04:02:26;;;;;;;24.83;12.00;;;;;;;;;;6160426;23;20469;-95
2023/06/24 04:04:53;;;;;;;21.45;12.25;;;;;;;;;;6209236;23;20007;-95
2023/06/24 04:07:27;;;;;;;21.98;12.18;;;;;;;;;;6160698;23;20522;-95
2023/06/24 04:09:56;;;;;;;22.42;12.60;;;;;;;;;;6161314;23;20096;-95
2023/06/24 04:12:23;;;;;;;21.98;12.75;;;;;;;;;;6210620;23;20032;-95
2023/06/24 04:14:52;;;;;;;25.38;12.52;;;;;;;;;;6212875;23;20009;-95
2023/06/24 04:17:18;;;;;;;23.73;12.80;;;;;;;;;;6163464;23;20092;-95
2023/06/24 04:19:45;;;;;;;28.98;13.50;;;;;;;;;;6164840;23;20028;-95
2023/06/24 04:22:11;;;;;;;25.58;13.70;;;;;;;;;;6163712;23;20070;-95
2023/06/24 04:24:46;;;;;;;30.08;14.65;;;;;;;;;;6164055;23;20013;-95
2023/06/24 04:27:12;;;;;;;31.17;17.52;;;;;;;;;;6214148;23;20019;-95
2023/06/24 04:29:41;;;;;;;32.25;16.55;;;;;;;;;;6165875;23;20012;-95
2023/06/24 04:32:08;;;;;;;31.50;16.60;;;;;;;;;;6165451;23;20600;-94
2023/06/24 04:34:34;;;;;;;30.88;16.58;;;;;;;;;;6165365;23;20015;-95
2023/06/24 04:37:00;;;;;;;26.75;15.43;;;;;;;;;;6216246;23;20022;-94
2023/06/24 04:39:27;;;;;;;32.92;15.82;;;;;;;;;;6194222;23;20563;-94
2023/06/24 04:41:53;;;;;;;25.63;13.85;;;;;;;;;;6220023;23;20043;-94
2023/06/24 04:44:20;;;;;;;24.48;14.15;;;;;;;;;;6200779;23;20004;-94
2023/06/24 04:46:51;;;;;;;31.73;14.35;;;;;;;;;;6181028;23;20009;-95
2023/06/24 04:49:21;;;;;;;24.23;12.85;;;;;;;;;;6183119;23;20020;-94
2023/06/24 04:51:54;;;;;;;21.83;13.02;;;;;;;;;;6182067;22;20481;-94
2023/06/24 04:54:20;;;;;;;32.13;13.18;;;;;;;;;;6200918;23;20031;-95
2023/06/24 04:56:55;;;;;;;23.05;12.43;;;;;;;;;;6224903;23;20030;-94
2023/06/24 04:59:34;;;;;;;25.77;13.35;;;;;;;;;;6176247;23;20023;-95
2023/06/24 05:02:01;;;;;;;22.55;12.55;;;;;;;;;;6221999;23;20009;-95
2023/06/24 05:04:31;;;;;;;25.05;13.05;;;;;;;;;;6170377;23;20540;-95
2023/06/24 05:06:57;;;;;;;23.98;13.55;;;;;;;;;;6168957;23;20009;-95
2023/06/24 05:09:23;;;;;;;26.38;12.60;;;;;;;;;;6164858;23;20013;-93
2023/06/24 05:11:49;;;;;;;21.90;12.20;;;;;;;;;;6164565;23;20054;-95
2023/06/24 05:14:15;;;;;;;27.10;12.25;;;;;;;;;;6163685;23;20474;-95
2023/06/24 05:16:51;;;;;;;24.08;11.57;;;;;;;;;;6163739;23;20375;-95
2023/06/24 05:19:17;;;;;;;16.88;10.95;;;;;;;;;;6165894;23;20516;-94
2023/06/24 05:21:44;;;;;;;22.20;11.55;;;;;;;;;;6213520;23;20009;-96
2023/06/24 05:24:11;;;;;;;24.45;10.40;;;;;;;;;;6214835;23;20004;-95
2023/06/24 05:26:37;;;;;;;18.20;9.70;;;;;;;;;;6213096;23;20035;-95
2023/06/24 05:29:04;;;;;;;16.88;9.80;;;;;;;;;;6186403;23;20001;-93
2023/06/24 05:31:31;;;;;;;15.52;9.60;;;;;;;;;;6187511;23;20013;-95
2023/06/24 05:33:57;;;;;;;16.08;9.68;;;;;;;;;;6162927;23;20013;-95
2023/06/24 05:36:26;;;;;;;18.60;8.38;;;;;;;;;;6186810;23;20461;-95
2023/06/24 05:38:52;;;;;;;16.50;9.63;;;;;;;;;;6163850;23;20071;-94
2023/06/24 05:41:41;;;;;;;13.18;8.60;;;;;;;;;;6186122;23;20043;-96
2023/06/24 05:44:11;;;;;;;14.93;8.88;;;;;;;;;;6177837;23;20005;-94
2023/06/24 05:46:38;;;;;;;17.58;9.68;;;;;;;;;;6187656;23;20079;-95
2023/06/24 05:49:04;;;;;;;14.27;8.35;;;;;;;;;;6161618;23;20016;-95
2023/06/24 05:51:30;;;;;;;18.00;7.57;;;;;;;;;;6164196;22;20016;-95
2023/06/24 05:53:59;;;;;;;14.57;8.15;;;;;;;;;;6186838;23;20091;-95
2023/06/24 05:56:26;;;;;;;13.95;7.78;;;;;;;;;;6161574;23;20016;-95
2023/06/24 05:58:52;;;;;;;13.55;7.63;;;;;;;;;;6186364;23;20008;-96
2023/06/24 06:01:18;;;;;;;14.35;7.45;;;;;;;;;;6161342;23;20008;-95
2023/06/24 06:03:44;;;;;;;19.42;8.45;;;;;;;;;;6161621;23;20013;-94
2023/06/24 06:06:19;;;;;;;16.73;8.25;;;;;;;;;;6185673;23;20004;-95
2023/06/24 06:08:45;;;;;;;12.20;7.20;;;;;;;;;;6186602;23;20012;-95
2023/06/24 06:11:11;;;;;;;11.43;7.78;;;;;;;;;;6161851;23;20088;-94
2023/06/24 06:13:37;;;;;;;12.43;7.95;;;;;;;;;;6161218;23;20013;-94
2023/06/24 06:16:07;;;;;;;13.48;7.30;;;;;;;;;;6161313;23;20431;-95
2023/06/24 06:18:33;;;;;;;12.23;6.53;;;;;;;;;;6161312;23;20013;-94
2023/06/24 06:21:00;;;;;;;11.77;7.22;;;;;;;;;;6186243;23;20004;-95
2023/06/24 06:23:28;;;;;;;11.77;7.43;;;;;;;;;;6162402;23;20031;-93
2023/06/24 06:25:54;;;;;;;9.95;7.10;;;;;;;;;;6162533;23;20457;-94
2023/06/24 06:28:20;;;;;;;12.80;7.10;;;;;;;;;;6161326;23;20009;-94
2023/06/24 06:30:49;;;;;;;10.73;7.28;;;;;;;;;;6186797;23;20020;-94
2023/06/24 06:33:22;;;;;;;13.98;7.53;;;;;;;;;;6164960;23;20024;-95
2023/06/24 06:35:49;;;;;;;15.95;7.70;;;;;;;;;;6186088;23;20443;-95
2023/06/24 06:38:15;;;;;;;10.18;7.18;;;;;;;;;;6160694;23;20043;-94
2023/06/24 06:40:42;;;;;;;13.88;7.30;;;;;;;;;;6159338;23;20064;-95
2023/06/24 06:43:11;;;;;;;10.50;6.68;;;;;;;;;;6211585;23;20005;-95
2023/06/24 06:45:37;;;;;;;10.30;6.53;;;;;;;;;;6161676;23;20012;-94
2023/06/24 06:48:07;;;;;;;12.57;7.90;;;;;;;;;;6161009;23;20066;-95
2023/06/24 06:50:34;;;;;;;12.05;7.47;;;;;;;;;;6185551;23;20396;-95
2023/06/24 06:53:17;;;;;;;16.40;7.78;;;;;;;;;;6188956;22;20046;-95
2023/06/24 06:55:43;;;;;;;9.07;7.20;;;;;;;;;;6163341;23;20020;-94
2023/06/24 06:58:12;;;;;;;12.63;7.15;;;;;;;;;;6184756;23;20095;-94
2023/06/24 07:00:39;;;;;;;12.43;7.63;;;;;;;;;;6162365;23;20031;-95
2023/06/24 07:03:05;;;;;;;14.65;8.27;;;;;;;;;;6160540;23;20019;-94
2023/06/24 07:05:31;;;;;;;12.75;7.50;;;;;;;;;;6212331;23;20430;-94
2023/06/24 07:08:00;;;;;;;16.13;8.02;;;;;;;;;;6161159;23;20481;-95
2023/06/24 07:10:29;;;;;;;12.38;7.07;;;;;;;;;;6161413;23;20012;-95
2023/06/24 07:13:05;;;;;;;15.02;7.28;;;;;;;;;;6157796;23;20017;-96
2023/06/24 07:15:31;;;;;;;13.35;7.80;;;;;;;;;;6160781;23;20012;-96
2023/06/24 07:17:57;;;;;;;9.95;6.85;;;;;;;;;;6186111;23;20513;-95
2023/06/24 07:20:23;;;;;;;22.85;8.50;;;;;;;;;;6161092;23;20009;-94
2023/06/24 07:22:58;;;;;;;12.88;6.80;;;;;;;;;;6160596;23;20009;-95
2023/06/24 07:25:26;;;;;;;12.05;7.80;;;;;;;;;;6185409;23;20009;-95
2023/06/24 07:27:57;;;;;;;13.73;7.20;;;;;;;;;;6160127;23;20017;-95
2023/06/24 07:30:24;;;;;;;16.17;8.20;;;;;;;;;;6162258;23;20036;-96
2023/06/24 07:32:51;;;;;;;12.40;6.85;;;;;;;;;;6160723;23;20399;-96
2023/06/24 07:35:18;;;;;;;12.25;7.68;;;;;;;;;;6161919;23;20059;-94
2023/06/24 07:37:45;;;;;;;12.85;7.68;;;;;;;;;;6160562;23;20017;-94
2023/06/24 07:40:11;;;;;;;11.55;7.75;;;;;;;;;;6183563;23;20012;-94
2023/06/24 07:42:37;;;;;;;12.55;7.35;;;;;;;;;;6160757;23;20071;-94
2023/06/24 07:45:18;;;;;;;11.18;7.35;;;;;;;;;;6184879;23;20043;-92
2023/06/24 07:47:44;;;;;;;9.82;7.13;;;;;;;;;;6165449;23;20012;-93
2023/06/24 07:50:11;;;;;;;9.98;6.75;;;;;;;;;;6161871;23;20019;-95
2023/06/24 07:52:37;;;;;;;12.23;6.72;;;;;;;;;;6189768;22;20470;-93
2023/06/24 07:55:06;;;;;;;11.23;6.97;;;;;;;;;;6161878;23;20016;-93
2023/06/24 07:57:32;;;;;;;8.02;6.03;;;;;;;;;;6161892;23;20012;-95
2023/06/24 08:00:02;;;;;;;11.93;6.30;;;;;;;;;;6187991;23;20035;-94
2023/06/24 08:02:31;;;;;;;9.52;6.15;;;;;;;;;;6186979;23;20008;-92
2023/06/24 08:05:00;;;;;;;9.82;6.10;;;;;;;;;;6187637;23;20294;-95
2023/06/24 08:07:27;;;;;;;9.88;6.75;;;;;;;;;;6162685;23;20008;-94
2023/06/24 08:09:53;;;;;;;10.70;6.35;;;;;;;;;;6163105;23;20450;-94
2023/06/24 08:12:19;;;;;;;11.15;5.78;;;;;;;;;;6161642;23;20015;-94
2023/06/24 08:14:48;;;;;;;12.00;6.05;;;;;;;;;;6162777;23;20004;-94
2023/06/24 08:17:15;;;;;;;12.45;6.35;;;;;;;;;;6162431;23;20307;-94
2023/06/24 08:19:44;;;;;;;12.40;5.22;;;;;;;;;;6186633;23;20470;-95
2023/06/24 08:22:12;;;;;;;8.55;5.25;;;;;;;;;;6162886;23;20055;-94
2023/06/24 08:24:44;;;;;;;11.25;4.55;;;;;;;;;;6161386;23;20008;-94
2023/06/24 08:27:11;;;;;;;9.35;5.50;;;;;;;;;;6162757;23;20095;-94
2023/06/24 08:29:39;;;;;;;10.10;5.15;;;;;;;;;;6161758;23;20084;-95
2023/06/24 08:32:06;;;;;;;6.80;5.13;;;;;;;;;;6162803;23;20291;-95
2023/06/24 08:34:42;;;;;;;9.43;5.05;;;;;;;;;;6187300;23;20011;-95
2023/06/24 08:37:09;;;;;;;9.07;4.85;;;;;;;;;;6162714;23;20047;-95
2023/06/24 08:39:47;;;;;;;7.78;5.07;;;;;;;;;;6185965;23;20450;-95
2023/06/24 08:42:20;;;;;;;6.85;4.60;;;;;;;;;;6163680;23;20008;-95
2023/06/24 08:44:48;;;;;;;8.43;4.70;;;;;;;;;;6188821;23;20455;-95
2023/06/24 08:47:17;;;;;;;13.57;5.07;;;;;;;;;;6164616;23;20005;-94
2023/06/24 08:52:43;;;;;;;10.75;4.93;;;;;;;;;;6233895;22;20031;-95
2023/06/24 08:55:13;;;;;;;11.63;5.32;;;;;;;;;;6219341;23;20082;-94
2023/06/24 08:57:40;;;;;;;8.18;4.90;;;;;;;;;;6218407;23;20009;-93
2023/06/24 09:00:10;;;;;;;9.82;5.03;;;;;;;;;;6217740;23;20030;-93
2023/06/24 09:02:38;;;;;;;12.68;5.47;;;;;;;;;;6195032;23;20009;-94
2023/06/24 09:05:13;;;;;;;22.75;6.30;;;;;;;;;;6220639;23;20334;-95
2023/06/24 09:07:39;;;;;;;;;;;;;;;;;;6199961;23;20012;-95
2023/06/24 09:13:05;;;;;;;8.23;5.03;;;;;;;;;;6155943;23;19951;-93
2023/06/24 09:15:40;;;;;;;9.57;5.53;;;;;;;;;;6152822;23;20012;-94
2023/06/24 09:18:07;;;;;;;6.22;4.82;;;;;;;;;;6207067;23;20008;-95
2023/06/24 09:20:39;;;;;;;7.65;5.15;;;;;;;;;;6260394;23;20075;-92
2023/06/24 09:23:32;;;;;;;7.28;4.63;;;;;;;;;;6215701;23;20035;-92
2023/06/24 09:26:00;;;;;;;12.40;4.88;;;;;;;;;;6216234;23;19995;-95
2023/06/24 09:31:30;;;;;;;9.52;4.47;;;;;;;;;;6239955;23;20008;-94
2023/06/24 09:34:11;;;;;;;9.43;4.57;;;;;;;;;;6214396;23;20008;-93
2023/06/24 09:39:35;;;;;;;10.07;4.82;;;;;;;;;;6135141;23;19990;-95
2023/06/24 09:42:07;;;;;;;9.43;5.25;;;;;;;;;;6212892;23;20014;-96
2023/06/24 09:44:33;;;;;;;8.38;4.75;;;;;;;;;;6202989;23;20008;-96
2023/06/24 09:47:12;;;;;;;13.25;5.47;;;;;;;;;;6199567;23;20012;-95
2023/06/24 09:49:38;;;;;;;8.45;4.57;;;;;;;;;;6201274;23;20019;-96
2023/06/24 09:52:05;;;;;;;9.65;4.95;;;;;;;;;;6220766;22;20020;-96
2023/06/24 09:54:32;;;;;;;9.45;5.30;;;;;;;;;;6222120;23;20035;-95
2023/06/24 09:57:00;;;;;;;10.63;4.63;;;;;;;;;;6200086;23;20347;-94
2023/06/24 09:59:46;;;;;;;8.18;4.65;;;;;;;;;;6222590;23;20015;-95
2023/06/24 10:02:15;;;;;;;11.30;5.03;;;;;;;;;;6221946;23;20377;-96
2023/06/24 10:04:41;;;;;;;11.00;4.90;;;;;;;;;;6216375;23;20015;-94
2023/06/24 10:07:11;;;;;;;8.18;4.72;;;;;;;;;;6195463;23;20012;-94
2023/06/24 10:09:39;;;;;;;10.07;5.32;;;;;;;;;;6222105;23;20020;-95
2023/06/24 10:12:05;;;;;;;8.93;4.40;;;;;;;;;;6218841;23;20012;-95
2023/06/24 10:14:31;;;;;;;7.38;4.38;;;;;;;;;;6196757;23;20004;-94
2023/06/24 10:17:07;;;;;;;5.35;4.18;;;;;;;;;;6224008;23;20012;-96
2023/06/24 10:22:42;;;;;;;7.18;4.75;;;;;;;;;;6142372;23;20010;-95
2023/06/24 10:25:08;;;;;;;6.70;3.90;;;;;;;;;;6195548;23;20158;-94
2023/06/24 10:27:56;;;;;;;10.27;3.97;;;;;;;;;;6194353;23;20018;-94
2023/06/24 10:30:28;;;;;;;9.95;4.40;;;;;;;;;;6247464;23;19996;-94
2023/06/24 10:39:26;;;;;;;;;;;;;;;;;;;;;
2023/06/24 10:41:56;;;;;;;5.30;3.60;;;;;;;;;;6094709;23;20089;-95
2023/06/24 10:44:22;;;;;;;5.68;2.92;;;;;;;;;;6071556;23;20022;-94
2023/06/24 10:46:57;;;;;;;5.97;3.88;;;;;;;;;;6151133;23;20004;-95
2023/06/24 10:49:23;;;;;;;;;;;;;;;;;;6221141;23;20015;-95
2023/06/24 10:52:14;;;;;;;6.72;3.45;;;;;;;;;;6222670;22;19989;-94
2023/06/24 10:54:42;;;;;;;7.82;3.60;;;;;;;;;;6221035;23;20015;-95
2023/06/24 10:57:08;;;;;;;6.85;3.75;;;;;;;;;;6195761;23;20329;-93
2023/06/24 10:59:44;;;;;;;14.25;4.05;;;;;;;;;;6191512;23;20008;-93
2023/06/24 11:02:14;;;;;;;4.57;3.45;;;;;;;;;;6214142;23;20011;-93
2023/06/24 11:04:44;;;;;;;7.32;3.72;;;;;;;;;;6188387;23;20011;-94
2023/06/24 11:07:13;;;;;;;5.20;3.40;;;;;;;;;;6190883;23;20011;-94
2023/06/24 11:10:13;;;;;;;8.15;4.15;;;;;;;;;;6191588;23;20099;-94
2023/06/24 11:12:39;;;;;;;4.18;3.72;;;;;;;;;;6193480;23;20015;-96
2023/06/24 11:15:07;;;;;;;6.72;4.60;;;;;;;;;;6217995;23;20007;-95
2023/06/24 11:17:34;;;;;;;8.10;3.53;;;;;;;;;;6188682;23;20012;-95
2023/06/24 11:20:00;;;;;;;7.32;3.55;;;;;;;;;;6214181;23;20011;-96
2023/06/24 11:22:27;;;;;;;8.50;3.58;;;;;;;;;;6244132;23;20476;-93
2023/06/24 11:24:55;;;;;;;7.78;4.93;;;;;;;;;;6216497;23;20004;-94
2023/06/24 11:27:31;;;;;;;4.68;3.85;;;;;;;;;;6222075;23;20004;-95
2023/06/24 11:30:02;;;;;;;5.40;3.85;;;;;;;;;;6219814;23;20008;-94
2023/06/24 11:32:39;;;;;;;12.32;3.50;;;;;;;;;;6219809;23;20000;-95
2023/06/24 11:35:24;;;;;;;7.90;4.60;;;;;;;;;;6194316;23;20039;-93
2023/06/24 11:37:53;;;;;;;5.00;3.95;;;;;;;;;;6198621;23;20018;-95
2023/06/24 11:40:38;;;;;;;5.65;4.00;;;;;;;;;;6216520;23;20003;-96
2023/06/24 11:43:04;;;;;;;6.87;3.53;;;;;;;;;;6218418;23;20324;-95
2023/06/24 11:45:32;;;;;;;7.18;3.97;;;;;;;;;;6192765;23;20239;-94
2023/06/24 11:48:04;;;;;;;6.63;3.97;;;;;;;;;;6218012;23;20031;-94
2023/06/24 11:50:30;;;;;;;7.68;4.10;;;;;;;;;;6217777;23;20011;-95
2023/06/24 11:52:56;;;;;;;5.85;4.25;;;;;;;;;;6196370;22;20024;-94
2023/06/24 11:55:24;;;;;;;6.53;4.13;;;;;;;;;;6219515;23;20269;-96
2023/06/24 11:57:51;;;;;;;7.65;4.30;;;;;;;;;;6194509;23;20016;-95
2023/06/24 12:00:23;;;;;;;6.38;4.57;;;;;;;;;;6217142;23;20004;-96
2023/06/24 12:02:59;;;;;;;5.63;4.43;;;;;;;;;;6224896;23;20086;-94
2023/06/24 12:05:36;;;;;;;5.38;4.20;;;;;;;;;;6217162;23;20008;-95
2023/06/24 12:08:03;;;;;;;4.55;3.42;;;;;;;;;;6217798;23;20015;-95
2023/06/24 12:10:30;;;;;;;4.68;3.80;;;;;;;;;;6244812;23;20082;-94
2023/06/24 12:13:05;;;;;;;4.57;3.40;;;;;;;;;;6217640;23;20061;-94
2023/06/24 12:15:32;;;;;;;6.50;3.80;;;;;;;;;;6220279;23;20071;-93
2023/06/24 12:18:14;;;;;;;6.85;3.60;;;;;;;;;;6221539;23;20071;-95
2023/06/24 12:20:40;;;;;;;6.68;3.17;;;;;;;;;;6193921;23;20008;-96
2023/06/24 12:23:09;;;;;;;6.28;3.45;;;;;;;;;;6193340;23;20402;-94
2023/06/24 12:25:36;;;;;;;9.43;3.65;;;;;;;;;;6195409;23;20345;-93
2023/06/24 12:28:02;;;;;;;7.43;3.60;;;;;;;;;;6192014;23;20065;-94
2023/06/24 12:30:29;;;;;;;3.53;3.13;;;;;;;;;;6217635;23;20517;-95
2023/06/24 12:33:00;;;;;;;3.97;3.03;;;;;;;;;;6192768;23;20008;-94
2023/06/24 12:35:50;;;;;;;6.45;3.38;;;;;;;;;;6195254;23;20067;-94
2023/06/24 12:38:31;;;;;;;4.32;3.10;;;;;;;;;;6150304;23;20008;-94
2023/06/24 12:40:58;;;;;;;6.53;3.28;;;;;;;;;;6194409;23;20009;-95
2023/06/24 12:43:24;;;;;;;11.23;3.80;;;;;;;;;;6193827;23;20112;-94
2023/06/24 12:45:51;;;;;;;4.45;3.47;;;;;;;;;;6219558;23;20390;-93
2023/06/24 12:48:24;;;;;;;5.75;3.50;;;;;;;;;;6191806;23;20016;-93
2023/06/24 12:50:53;;;;;;;4.80;3.30;;;;;;;;;;6218065;23;20535;-95
2023/06/24 12:53:21;;;;;;;8.70;3.60;;;;;;;;;;6176290;22;20025;-94
2023/06/24 12:55:47;;;;;;;5.53;3.50;;;;;;;;;;6164645;23;20013;-95
2023/06/24 12:58:25;;;;;;;3.97;3.33;;;;;;;;;;6187832;23;20008;-95
2023/06/24 13:00:51;;;;;;;5.53;3.58;;;;;;;;;;6186546;23;20054;-94
2023/06/24 13:03:20;;;;;;;8.65;3.17;;;;;;;;;;6160867;23;20016;-94
2023/06/24 13:05:57;;;;;;;6.68;3.25;;;;;;;;;;6185860;23;20066;-94
2023/06/24 13:08:41;;;;;;;7.63;3.75;;;;;;;;;;6186600;23;20018;-95
2023/06/24 13:11:08;;;;;;;6.85;3.38;;;;;;;;;;6165696;23;20013;-94
2023/06/24 13:13:34;;;;;;;4.90;3.30;;;;;;;;;;6164617;23;20058;-94
2023/06/24 13:16:00;;;;;;;6.88;3.72;;;;;;;;;;6165089;23;20013;-95
2023/06/24 13:18:26;;;;;;;5.90;3.53;;;;;;;;;;6163423;23;20013;-94
2023/06/24 13:20:54;;;;;;;5.07;3.45;;;;;;;;;;6190827;23;20012;-95
2023/06/24 13:23:22;;;;;;;5.63;3.08;;;;;;;;;;6161857;23;20005;-94
2023/06/24 13:25:48;;;;;;;6.00;3.50;;;;;;;;;;6187229;23;20008;-95
2023/06/24 13:28:17;;;;;;;4.95;4.15;;;;;;;;;;6190816;23;20015;-96
2023/06/24 13:31:01;;;;;;;6.90;3.67;;;;;;;;;;6186853;23;20015;-95
2023/06/24 13:33:34;;;;;;;7.63;3.83;;;;;;;;;;6165988;23;20071;-95
2023/06/24 13:36:00;;;;;;;4.00;2.92;;;;;;;;;;6162281;23;20009;-94
2023/06/24 13:38:26;;;;;;;5.10;2.90;;;;;;;;;;6163356;23;20507;-96
2023/06/24 13:40:59;;;;;;;10.02;3.28;;;;;;;;;;6160288;23;20004;-94
2023/06/24 13:43:25;;;;;;;9.50;3.35;;;;;;;;;;6162818;23;20512;-95
2023/06/24 13:45:52;;;;;;;6.55;3.85;;;;;;;;;;6189420;23;20005;-94
2023/06/24 13:48:19;;;;;;;14.63;3.25;;;;;;;;;;6190697;23;20228;-95
2023/06/24 13:50:48;;;;;;;5.78;3.03;;;;;;;;;;6190747;23;20087;-95
2023/06/24 13:53:14;;;;;;;4.43;3.15;;;;;;;;;;6193981;22;20025;-95
2023/06/24 13:55:46;;;;;;;3.67;2.85;;;;;;;;;;6193701;23;20059;-94
2023/06/24 14:01:10;;;;;;;4.13;2.50;;;;;;;;;;6139875;23;20005;-95
2023/06/24 14:03:36;;;;;;;4.68;2.42;;;;;;;;;;6171545;23;20005;-94
2023/06/24 14:06:21;;;;;;;;;;;;;;;;;;;;;
2023/06/24 14:08:48;;;;;;;4.97;3.17;;;;;;;;;;6220619;23;20024;-94
2023/06/24 14:11:24;;;;;;;3.28;2.40;;;;;;;;;;6191577;23;20028;-95
2023/06/24 14:14:04;;;;;;;6.97;2.67;;;;;;;;;;6168909;23;20016;-94
2023/06/24 14:16:33;;;;;;;7.50;3.40;;;;;;;;;;6166660;23;20446;-96
2023/06/24 14:19:18;;;;;;;8.55;3.05;;;;;;;;;;6194108;23;20008;-95
2023/06/24 14:24:33;;;;;;;4.82;3.63;;;;;;;;;;6194650;23;20243;-94
2023/06/24 14:26:59;;;;;;;5.05;3.63;;;;;;;;;;6188217;23;20004;-95
2023/06/24 14:32:32;;;;;;;7.30;4.07;;;;;;;;;;6192995;23;20066;-95
2023/06/24 14:35:05;;;;;;;6.22;4.35;;;;;;;;;;6188652;23;20092;-94
2023/06/24 14:40:51;;;;;;;11.88;4.80;;;;;;;;;;6213888;23;20548;-94
2023/06/24 14:43:57;;;;;;;8.57;4.15;;;;;;;;;;6179124;23;20009;-94
2023/06/24 14:46:23;;;;;;;9.57;4.30;;;;;;;;;;6126600;23;20451;-94
2023/06/24 14:48:50;;;;;;;10.18;4.68;;;;;;;;;;6128056;23;20060;-93
2023/06/24 14:57:17;;;;;;;9.23;4.30;;;;;;;;;;6064610;23;20085;-95
2023/06/24 14:59:46;;;;;;;9.43;4.15;;;;;;;;;;5978497;24;20019;-95
2023/06/24 15:02:12;;;;;;;10.63;4.57;;;;;;;;;;6063037;23;20292;-95
2023/06/24 15:04:42;;;;;;;8.02;3.63;;;;;;;;;;6090158;23;20009;-94
2023/06/24 15:07:12;;;;;;;4.97;3.85;;;;;;;;;;6157383;23;20005;-95
2023/06/24 15:09:43;;;;;;;6.05;4.07;;;;;;;;;;6155929;23;20005;-94
2023/06/24 15:12:24;;;;;;;5.78;3.20;;;;;;;;;;6154377;23;20009;-95
2023/06/24 15:14:51;;;;;;;7.60;4.03;;;;;;;;;;6142682;23;20454;-94
2023/06/24 15:17:23;;;;;;;5.13;3.20;;;;;;;;;;6209742;23;20047;-95
2023/06/24 15:19:54;;;;;;;6.38;3.75;;;;;;;;;;6211107;23;20020;-94
2023/06/24 15:22:20;;;;;;;8.13;3.65;;;;;;;;;;6186465;23;20009;-95
2023/06/24 15:24:47;;;;;;;6.47;4.00;;;;;;;;;;6210192;23;20079;-94
2023/06/24 15:27:16;;;;;;;5.00;3.60;;;;;;;;;;6210465;23;20009;-96
2023/06/24 15:29:44;;;;;;;5.88;3.38;;;;;;;;;;6184149;23;20035;-96